createdAt,value
2023-03-01T00:01:22.332Z,99.90
2023-03-01T00:03:51.049Z,99.90
2023-03-01T00:06:23.363Z,99.90
2023-03-01T00:08:52.120Z,99.90
2023-03-01T00:11:22.411Z,99.90
2023-03-01T00:13:53.099Z,99.90
2023-03-01T00:16:23.363Z,99.90
2023-03-01T00:18:51.663Z,99.90
2023-03-01T00:21:22.210Z,99.90
2023-03-01T00:23:50.667Z,99.90
2023-03-01T00:26:20.698Z,99.90
2023-03-01T00:28:49.194Z,99.90
2023-03-01T00:31:19.298Z,99.90
2023-03-01T00:33:47.743Z,99.90
2023-03-01T00:36:17.470Z,99.90
2023-03-01T00:38:48.019Z,99.90
2023-03-01T00:41:18.309Z,99.90
2023-03-01T00:43:47.224Z,99.90
2023-03-01T00:46:19.586Z,99.90
2023-03-01T00:48:48.100Z,99.90
2023-03-01T00:51:18.158Z,99.90
2023-03-01T00:53:47.720Z,99.90
2023-03-01T00:56:17.114Z,99.90
2023-03-01T00:58:45.157Z,99.90
2023-03-01T01:01:19.090Z,99.90
2023-03-01T01:03:49.045Z,99.90
2023-03-01T01:06:19.622Z,99.90
2023-03-01T01:08:49.407Z,99.90
2023-03-01T01:11:17.898Z,99.90
2023-03-01T01:13:48.268Z,99.90
2023-03-01T01:16:17.476Z,99.90
2023-03-01T01:18:45.546Z,99.90
2023-03-01T01:21:15.474Z,99.90
2023-03-01T01:23:44.929Z,99.90
2023-03-01T01:26:16.462Z,99.90
2023-03-01T01:28:44.542Z,99.90
2023-03-01T01:31:13.236Z,99.90
2023-03-01T01:33:41.489Z,99.90
2023-03-01T01:36:10.720Z,99.90
2023-03-01T01:38:39.762Z,99.90
2023-03-01T01:41:08.484Z,99.90
2023-03-01T01:43:40.056Z,99.90
2023-03-01T01:46:17.613Z,99.90
2023-03-01T01:48:50.198Z,99.90
2023-03-01T01:51:24.411Z,99.90
2023-03-01T01:53:58.320Z,99.90
2023-03-01T01:56:28.935Z,99.90
2023-03-01T01:58:59.276Z,99.90
2023-03-01T02:01:27.537Z,99.90
2023-03-01T02:03:55.714Z,99.90
2023-03-01T02:06:30.358Z,99.90
2023-03-01T02:09:03.944Z,99.90
2023-03-01T02:11:33.572Z,99.90
2023-03-01T02:14:02.954Z,99.90
2023-03-01T02:16:32.488Z,99.90
2023-03-01T02:19:00.994Z,99.90
2023-03-01T02:21:41.111Z,99.90
2023-03-01T02:24:20.588Z,99.90
2023-03-01T02:27:19.157Z,99.90
2023-03-01T02:30:05.632Z,99.90
2023-03-01T02:32:32.794Z,99.90
2023-03-01T02:35:03.030Z,99.90
2023-03-01T02:37:31.275Z,99.90
2023-03-01T02:40:01.803Z,99.90
2023-03-01T02:42:35.970Z,99.90
2023-03-01T02:45:06.473Z,99.90
2023-03-01T02:47:34.556Z,99.90
2023-03-01T02:50:02.975Z,99.90
2023-03-01T02:52:43.436Z,99.90
2023-03-01T02:55:20.550Z,99.90
2023-03-01T02:57:51.627Z,99.90
2023-03-01T03:00:26.939Z,99.90
2023-03-01T03:02:57.922Z,99.90
2023-03-01T03:05:28.090Z,99.90
2023-03-01T03:07:56.523Z,99.90
2023-03-01T03:10:27.806Z,99.90
2023-03-01T03:12:57.671Z,99.90
2023-03-01T03:15:28.337Z,99.90
2023-03-01T03:17:56.750Z,99.90
2023-03-01T03:20:27.793Z,99.90
2023-03-01T03:22:57.659Z,99.90
2023-03-01T03:25:26.505Z,99.90
2023-03-01T03:27:58.835Z,99.90
2023-03-01T03:30:30.625Z,99.90
2023-03-01T03:32:59.872Z,99.90
2023-03-01T03:35:31.067Z,99.90
2023-03-01T03:38:11.869Z,99.90
2023-03-01T03:40:42.093Z,99.90
2023-03-01T03:43:13.007Z,99.90
2023-03-01T03:45:42.817Z,99.90
2023-03-01T03:48:12.120Z,99.90
2023-03-01T03:50:41.102Z,99.90
2023-03-01T03:53:11.435Z,99.90
2023-03-01T03:55:40.309Z,99.90
2023-03-01T03:58:10.851Z,99.90
2023-03-01T04:00:41.112Z,99.90
2023-03-01T04:03:11.573Z,99.90
2023-03-01T04:05:41.540Z,99.90
2023-03-01T04:08:10.574Z,99.90
2023-03-01T04:10:40.716Z,99.90
2023-03-01T04:13:11.490Z,99.90
2023-03-01T04:15:39.890Z,99.90
2023-03-01T04:18:08.820Z,99.90
2023-03-01T04:20:38.522Z,99.90
2023-03-01T04:23:16.845Z,99.90
2023-03-01T04:25:50.344Z,99.90
2023-03-01T04:28:18.612Z,99.90
2023-03-01T04:30:46.966Z,99.90
2023-03-01T04:33:15.130Z,99.90
2023-03-01T04:35:44.727Z,99.90
2023-03-01T04:38:12.979Z,99.90
2023-03-01T04:40:43.435Z,99.90
2023-03-01T04:43:12.539Z,99.90
2023-03-01T04:45:40.620Z,99.90
2023-03-01T04:48:09.184Z,99.90
2023-03-01T04:50:37.520Z,99.90
2023-03-01T04:53:06.960Z,99.90
2023-03-01T04:55:36.181Z,99.90
2023-03-01T04:58:04.231Z,99.90
2023-03-01T05:00:32.389Z,99.90
2023-03-01T05:03:03.079Z,99.90
2023-03-01T05:05:34.496Z,99.90
2023-03-01T05:08:05.171Z,99.90
2023-03-01T05:10:37.155Z,99.90
2023-03-01T05:13:07.590Z,99.90
2023-03-01T05:15:37.479Z,99.90
2023-03-01T05:18:08.188Z,99.90
2023-03-01T05:20:37.226Z,99.90
2023-03-01T05:23:06.320Z,99.90
2023-03-01T05:25:41.081Z,99.90
2023-03-01T05:28:12.439Z,99.90
2023-03-01T05:30:41.267Z,99.90
2023-03-01T05:33:14.416Z,99.90
2023-03-01T05:35:43.999Z,99.90
2023-03-01T05:38:14.202Z,99.90
2023-03-01T05:40:44.491Z,99.90
2023-03-01T05:43:14.547Z,99.90
2023-03-01T05:45:43.882Z,99.90
2023-03-01T05:48:12.773Z,99.90
2023-03-01T05:50:42.563Z,99.90
2023-03-01T05:53:13.553Z,99.90
2023-03-01T05:55:44.831Z,99.90
2023-03-01T05:58:15.961Z,99.90
2023-03-01T06:00:44.999Z,99.90
2023-03-01T06:03:14.247Z,99.90
2023-03-01T06:05:42.724Z,99.90
2023-03-01T06:08:12.565Z,99.90
2023-03-01T06:10:41.766Z,99.90
2023-03-01T06:13:11.279Z,99.90
2023-03-01T06:15:39.633Z,99.90
2023-03-01T06:18:07.740Z,99.90
2023-03-01T06:20:36.523Z,99.00
2023-03-01T06:23:05.198Z,98.20
2023-03-01T06:25:33.119Z,99.00
2023-03-01T06:28:01.635Z,97.70
2023-03-01T06:30:31.466Z,96.60
2023-03-01T06:33:02.322Z,96.00
2023-03-01T06:35:31.567Z,95.50
2023-03-01T06:38:00.830Z,94.60
2023-03-01T06:40:29.418Z,95.60
2023-03-01T06:42:57.678Z,95.70
2023-03-01T06:45:26.394Z,96.30
2023-03-01T06:48:04.421Z,96.80
2023-03-01T06:50:32.952Z,96.10
2023-03-01T06:53:01.000Z,94.90
2023-03-01T06:55:29.113Z,96.90
2023-03-01T06:57:58.194Z,96.30
2023-03-01T07:00:27.011Z,94.80
2023-03-01T07:02:56.897Z,95.80
2023-03-01T07:05:25.007Z,96.20
2023-03-01T07:07:53.422Z,96.70
2023-03-01T07:10:21.713Z,96.20
2023-03-01T07:12:49.790Z,94.60
2023-03-01T07:15:18.090Z,94.60
2023-03-01T07:17:48.615Z,95.00
2023-03-01T07:20:18.550Z,95.40
2023-03-01T07:22:46.673Z,95.20
2023-03-01T07:25:14.702Z,94.00
2023-03-01T07:27:42.717Z,94.00
2023-03-01T07:30:12.232Z,93.30
2023-03-01T07:32:40.338Z,91.80
2023-03-01T07:35:09.197Z,91.30
2023-03-01T07:37:38.470Z,92.10
2023-03-01T07:40:07.727Z,90.70
2023-03-01T07:42:35.665Z,91.30
2023-03-01T07:45:03.735Z,89.40
2023-03-01T07:47:31.653Z,88.20
2023-03-01T07:49:59.664Z,89.60
2023-03-01T07:52:28.117Z,87.50
2023-03-01T07:54:57.500Z,88.30
2023-03-01T07:57:25.665Z,85.10
2023-03-01T07:59:53.538Z,89.20
2023-03-01T08:02:21.438Z,85.80
2023-03-01T08:04:49.512Z,86.10
2023-03-01T08:07:17.695Z,84.90
2023-03-01T08:09:48.208Z,86.70
2023-03-01T08:12:17.972Z,83.40
2023-03-01T08:14:45.921Z,84.20
2023-03-01T08:17:16.349Z,81.60
2023-03-01T08:19:45.568Z,81.50
2023-03-01T08:22:13.782Z,80.80
2023-03-01T08:24:41.879Z,80.00
2023-03-01T08:27:09.816Z,78.70
2023-03-01T08:29:39.215Z,80.60
2023-03-01T08:32:07.488Z,80.70
2023-03-01T08:34:38.187Z,79.50
2023-03-01T08:37:06.192Z,77.80
2023-03-01T08:39:34.509Z,76.60
2023-03-01T08:42:02.679Z,76.10
2023-03-01T08:44:31.055Z,76.10
2023-03-01T08:47:01.023Z,78.30
2023-03-01T08:49:29.066Z,77.30
2023-03-01T08:51:57.228Z,77.60
2023-03-01T08:56:52.204Z,73.00
2023-03-01T08:59:21.507Z,71.50
2023-03-01T09:01:49.646Z,71.90
2023-03-01T09:04:19.398Z,72.40
2023-03-01T09:06:47.422Z,70.90
2023-03-01T09:09:17.410Z,70.10
2023-03-01T09:11:51.403Z,68.00
2023-03-01T09:14:20.832Z,69.20
2023-03-01T09:16:50.117Z,68.70
2023-03-01T09:19:19.807Z,68.60
2023-03-01T09:21:53.126Z,68.90
2023-03-01T09:24:23.407Z,67.20
2023-03-01T09:26:51.870Z,66.10
2023-03-01T09:29:19.861Z,68.30
2023-03-01T09:31:47.908Z,65.20
2023-03-01T09:34:17.036Z,65.20
2023-03-01T09:36:46.370Z,65.80
2023-03-01T09:39:14.384Z,65.20
2023-03-01T09:41:48.651Z,65.40
2023-03-01T09:44:34.913Z,64.70
2023-03-01T09:47:03.964Z,63.50
2023-03-01T09:49:35.132Z,63.50
2023-03-01T09:52:14.502Z,62.80
2023-03-01T09:54:59.635Z,61.60
2023-03-01T09:57:35.049Z,61.90
2023-03-01T10:00:18.887Z,62.10
2023-03-01T10:02:51.416Z,62.20
2023-03-01T10:05:43.584Z,61.30
2023-03-01T10:08:37.724Z,61.40
2023-03-01T10:11:20.357Z,60.10
2023-03-01T10:13:54.762Z,61.10
2023-03-01T10:16:28.247Z,59.80
2023-03-01T10:19:01.411Z,60.40
2023-03-01T10:21:32.997Z,58.80
2023-03-01T10:24:13.685Z,61.60
2023-03-01T10:26:50.462Z,59.90
2023-03-01T10:29:18.694Z,58.70
2023-03-01T10:31:48.928Z,59.10
2023-03-01T10:34:18.977Z,58.20
2023-03-01T10:36:51.204Z,58.30
2023-03-01T10:39:22.577Z,56.80
2023-03-01T10:42:02.139Z,58.10
2023-03-01T10:44:46.968Z,58.30
2023-03-01T10:47:22.484Z,59.00
2023-03-01T10:50:02.873Z,57.40
2023-03-01T10:52:34.226Z,57.00
2023-03-01T10:55:06.774Z,57.10
2023-03-01T10:57:42.293Z,58.40
2023-03-01T11:00:26.541Z,56.90
2023-03-01T11:03:11.878Z,58.20
2023-03-01T11:05:51.840Z,57.30
2023-03-01T11:08:34.900Z,56.20
2023-03-01T11:11:28.136Z,56.00
2023-03-01T11:13:59.674Z,55.90
2023-03-01T11:16:31.501Z,55.90
2023-03-01T11:19:02.111Z,55.00
2023-03-01T11:21:34.472Z,53.70
2023-03-01T11:24:05.245Z,54.30
2023-03-01T11:26:39.670Z,54.00
2023-03-01T11:29:18.719Z,54.00
2023-03-01T11:31:57.290Z,54.00
2023-03-01T11:34:36.899Z,52.30
2023-03-01T11:37:12.574Z,51.30
2023-03-01T11:39:45.865Z,51.70
2023-03-01T11:42:20.721Z,52.00
2023-03-01T11:44:52.021Z,51.80
2023-03-01T11:47:29.621Z,50.80
2023-03-01T11:50:08.808Z,51.30
2023-03-01T11:52:51.000Z,50.60
2023-03-01T11:55:47.437Z,51.40
2023-03-01T11:58:36.162Z,50.00
2023-03-01T12:01:20.248Z,49.20
2023-03-01T12:03:59.459Z,50.00
2023-03-01T12:06:38.085Z,48.40
2023-03-01T12:09:39.410Z,47.60
2023-03-01T12:12:40.056Z,47.60
2023-03-01T12:15:41.491Z,47.60
2023-03-01T12:18:37.724Z,46.00
2023-03-01T12:21:16.380Z,45.00
2023-03-01T12:24:17.386Z,45.10
2023-03-01T12:26:55.505Z,46.10
2023-03-01T12:29:27.928Z,46.00
2023-03-01T12:32:15.097Z,45.30
2023-03-01T12:35:04.892Z,44.30
2023-03-01T12:37:43.146Z,45.40
2023-03-01T12:40:27.041Z,44.70
2023-03-01T12:43:06.686Z,45.30
2023-03-01T12:45:45.405Z,44.90
2023-03-01T12:48:26.533Z,44.60
2023-03-01T12:50:58.963Z,44.60
2023-03-01T12:53:28.503Z,44.00
2023-03-01T12:56:00.484Z,43.50
2023-03-01T12:58:48.714Z,43.80
2023-03-01T13:01:28.384Z,44.10
2023-03-01T13:04:17.931Z,44.70
2023-03-01T13:06:56.204Z,43.30
2023-03-01T13:09:32.287Z,43.60
2023-03-01T13:12:01.733Z,43.50
2023-03-01T13:14:48.432Z,43.90
2023-03-01T13:17:32.219Z,44.50
2023-03-01T13:20:02.203Z,43.80
2023-03-01T13:22:35.505Z,43.80
2023-03-01T13:25:16.069Z,43.50
2023-03-01T13:27:46.402Z,43.00
2023-03-01T13:30:44.994Z,44.00
2023-03-01T13:33:48.228Z,42.70
2023-03-01T13:36:51.235Z,43.60
2023-03-01T13:39:33.314Z,43.50
2023-03-01T13:42:02.511Z,43.40
2023-03-01T13:44:34.143Z,43.20
2023-03-01T13:47:09.366Z,43.20
2023-03-01T13:49:46.944Z,43.40
2023-03-01T13:52:40.757Z,43.10
2023-03-01T13:55:19.276Z,42.40
2023-03-01T13:57:54.737Z,43.50
2023-03-01T14:00:35.605Z,43.40
2023-03-01T14:03:06.616Z,43.70
2023-03-01T14:05:35.218Z,43.40
2023-03-01T14:08:04.695Z,43.00
2023-03-01T14:10:39.751Z,42.60
2023-03-01T14:13:22.485Z,43.10
2023-03-01T14:16:05.475Z,43.50
2023-03-01T14:18:41.556Z,43.10
2023-03-01T14:21:10.761Z,43.30
2023-03-01T14:23:43.193Z,44.20
2023-03-01T14:26:13.085Z,43.40
2023-03-01T14:28:44.730Z,44.10
2023-03-01T14:31:51.983Z,43.40
2023-03-01T14:34:25.816Z,44.00
2023-03-01T14:36:53.814Z,44.90
2023-03-01T14:39:27.681Z,44.10
2023-03-01T14:41:57.371Z,44.40
2023-03-01T14:44:30.830Z,43.70
2023-03-01T14:46:59.195Z,43.30
2023-03-01T14:49:36.948Z,43.70
2023-03-01T14:52:26.073Z,43.50
2023-03-01T14:54:56.840Z,43.00
2023-03-01T14:57:26.458Z,43.30
2023-03-01T14:59:56.705Z,43.30
2023-03-01T15:02:26.794Z,43.40
2023-03-01T15:04:58.612Z,43.50
2023-03-01T15:07:31.635Z,42.80
2023-03-01T15:10:02.183Z,43.10
2023-03-01T15:12:42.982Z,43.60
2023-03-01T15:15:34.695Z,43.80
2023-03-01T15:18:05.084Z,44.00
2023-03-01T15:20:37.130Z,44.30
2023-03-01T15:23:06.296Z,44.20
2023-03-01T15:25:37.094Z,44.00
2023-03-01T15:28:05.820Z,43.70
2023-03-01T15:30:38.688Z,43.30
2023-03-01T15:33:22.200Z,43.70
2023-03-01T15:35:54.433Z,43.20
2023-03-01T15:38:39.129Z,43.30
2023-03-01T15:41:24.994Z,43.80
2023-03-01T15:43:55.247Z,43.70
2023-03-01T15:46:27.436Z,43.90
2023-03-01T15:48:58.169Z,44.10
2023-03-01T15:51:32.239Z,43.80
2023-03-01T15:54:03.228Z,43.30
2023-03-01T15:56:32.954Z,43.70
2023-03-01T15:59:05.590Z,44.30
2023-03-01T16:01:35.256Z,44.10
2023-03-01T16:04:03.397Z,44.90
2023-03-01T16:06:31.756Z,44.80
2023-03-01T16:08:59.877Z,44.40
2023-03-01T16:11:27.839Z,45.10
2023-03-01T16:13:57.438Z,45.70
2023-03-01T16:16:25.721Z,45.80
2023-03-01T16:18:56.030Z,46.00
2023-03-01T16:21:26.109Z,45.80
2023-03-01T16:23:56.322Z,46.00
2023-03-01T16:26:31.949Z,45.90
2023-03-01T16:29:01.376Z,45.80
2023-03-01T16:31:30.121Z,46.50
2023-03-01T16:34:00.737Z,47.00
2023-03-01T16:36:30.166Z,46.50
2023-03-01T16:39:01.374Z,47.30
2023-03-01T16:41:30.293Z,47.90
2023-03-01T16:43:58.488Z,48.80
2023-03-01T16:46:30.151Z,48.70
2023-03-01T16:48:58.586Z,49.20
2023-03-01T16:51:26.892Z,48.50
2023-03-01T16:53:55.098Z,47.40
2023-03-01T16:56:23.183Z,47.10
2023-03-01T16:58:51.227Z,47.50
2023-03-01T17:01:21.429Z,48.00
2023-03-01T17:03:52.184Z,47.20
2023-03-01T17:06:23.187Z,47.30
2023-03-01T17:08:51.231Z,46.70
2023-03-01T17:11:21.033Z,47.40
2023-03-01T17:13:49.709Z,48.10
2023-03-01T17:16:20.290Z,48.70
2023-03-01T17:18:48.378Z,47.80
2023-03-01T17:21:18.579Z,48.10
2023-03-01T17:23:48.229Z,47.90
2023-03-01T17:26:19.470Z,48.00
2023-03-01T17:28:51.859Z,48.10
2023-03-01T17:31:20.763Z,48.50
2023-03-01T17:33:49.950Z,48.00
2023-03-01T17:36:19.299Z,48.70
2023-03-01T17:38:47.309Z,49.00
2023-03-01T17:41:17.709Z,49.10
2023-03-01T17:43:45.820Z,49.60
2023-03-01T17:46:13.932Z,49.20
2023-03-01T17:48:44.677Z,49.10
2023-03-01T17:51:13.220Z,49.20
2023-03-01T17:53:42.969Z,50.20
2023-03-01T17:56:14.619Z,49.60
2023-03-01T17:58:43.100Z,50.00
2023-03-01T18:01:14.237Z,49.70
2023-03-01T18:03:42.290Z,49.60
2023-03-01T18:06:14.923Z,49.70
2023-03-01T18:08:45.379Z,49.70
2023-03-01T18:11:13.477Z,50.20
2023-03-01T18:13:44.357Z,50.30
2023-03-01T18:16:15.707Z,50.60
2023-03-01T18:18:48.314Z,50.70
2023-03-01T18:21:17.438Z,51.20
2023-03-01T18:23:46.989Z,50.90
2023-03-01T18:26:17.699Z,50.70
2023-03-01T18:28:47.295Z,50.80
2023-03-01T18:31:18.460Z,50.80
2023-03-01T18:33:47.092Z,51.20
2023-03-01T18:36:21.275Z,51.20
2023-03-01T18:38:50.794Z,50.90
2023-03-01T18:41:18.815Z,51.70
2023-03-01T18:43:47.266Z,51.50
2023-03-01T18:46:15.758Z,51.60
2023-03-01T18:48:44.934Z,51.90
2023-03-01T18:51:15.703Z,51.60
2023-03-01T18:53:43.916Z,51.50
2023-03-01T18:56:14.223Z,51.60
2023-03-01T18:58:43.858Z,51.80
2023-03-01T19:01:16.661Z,51.60
2023-03-01T19:03:44.931Z,51.50
2023-03-01T19:06:13.429Z,51.30
2023-03-01T19:08:42.355Z,51.40
2023-03-01T19:11:10.979Z,51.40
2023-03-01T19:13:41.742Z,51.30
2023-03-01T19:16:11.338Z,51.50
2023-03-01T19:18:41.335Z,51.40
2023-03-01T19:21:14.919Z,51.90
2023-03-01T19:23:42.932Z,51.50
2023-03-01T19:26:13.360Z,52.30
2023-03-01T19:28:43.781Z,52.30
2023-03-01T19:31:14.157Z,51.60
2023-03-01T19:33:43.143Z,52.00
2023-03-01T19:36:13.419Z,51.90
2023-03-01T19:38:42.807Z,52.00
2023-03-01T19:41:12.609Z,51.90
2023-03-01T19:43:42.428Z,52.00
2023-03-01T19:46:11.720Z,51.90
2023-03-01T19:48:40.959Z,51.90
2023-03-01T19:51:09.504Z,51.80
2023-03-01T19:53:39.212Z,53.10
2023-03-01T19:56:08.854Z,52.60
2023-03-01T19:58:37.151Z,52.70
2023-03-01T20:01:22.730Z,52.80
2023-03-01T20:03:51.170Z,52.80
2023-03-01T20:06:22.276Z,52.60
2023-03-01T20:08:50.917Z,53.20
2023-03-01T20:11:21.391Z,53.40
2023-03-01T20:13:51.083Z,53.50
2023-03-01T20:16:32.772Z,53.70
2023-03-01T20:19:02.257Z,54.50
2023-03-01T20:21:30.524Z,54.70
2023-03-01T20:23:59.723Z,54.70
2023-03-01T20:26:29.987Z,54.60
2023-03-01T20:29:01.986Z,55.10
2023-03-01T20:31:31.919Z,55.20
2023-03-01T20:34:01.380Z,55.50
2023-03-01T20:36:30.370Z,56.00
2023-03-01T20:39:01.775Z,56.20
2023-03-01T20:41:29.969Z,56.70
2023-03-01T20:43:59.546Z,57.20
2023-03-01T20:46:33.156Z,57.10
2023-03-01T20:49:04.072Z,57.40
2023-03-01T20:51:32.786Z,57.50
2023-03-01T20:54:02.002Z,57.90
2023-03-01T20:56:32.093Z,58.30
2023-03-01T20:59:01.079Z,58.30
2023-03-01T21:01:29.859Z,58.30
2023-03-01T21:03:58.139Z,58.30
2023-03-01T21:06:28.250Z,57.70
2023-03-01T21:14:59.101Z,59.30
2023-03-01T21:17:32.215Z,59.30
2023-03-01T21:20:03.035Z,58.80
2023-03-01T21:22:36.032Z,58.90
2023-03-01T21:25:12.751Z,59.80
2023-03-01T21:27:51.537Z,59.90
2023-03-01T21:30:22.763Z,60.90
2023-03-01T21:32:53.316Z,60.60
2023-03-01T21:35:23.248Z,60.60
2023-03-01T21:37:54.992Z,61.70
2023-03-01T21:40:25.161Z,61.70
2023-03-01T21:42:55.491Z,61.70
2023-03-01T21:45:23.889Z,61.10
2023-03-01T21:47:53.969Z,62.10
2023-03-01T21:50:22.877Z,63.40
2023-03-01T21:52:52.972Z,64.70
2023-03-01T21:55:21.544Z,65.00
2023-03-01T21:57:51.874Z,66.00
2023-03-01T22:00:23.467Z,67.80
2023-03-01T22:02:51.819Z,68.20
2023-03-01T22:05:19.873Z,67.50
2023-03-01T22:07:47.949Z,67.50
2023-03-01T22:10:28.329Z,65.60
2023-03-01T22:12:56.960Z,64.10
2023-03-01T22:15:28.019Z,64.20
2023-03-01T22:17:56.000Z,63.70
2023-03-01T22:20:24.180Z,63.90
2023-03-01T22:22:52.518Z,63.60
2023-03-01T22:25:22.450Z,64.50
2023-03-01T22:27:52.451Z,64.60
2023-03-01T22:30:22.805Z,64.20
2023-03-01T22:32:51.287Z,63.00
2023-03-01T22:35:19.663Z,63.80
2023-03-01T22:37:49.570Z,63.70
2023-03-01T22:40:17.687Z,64.10
2023-03-01T22:42:47.377Z,64.10
2023-03-01T22:45:18.081Z,64.10
2023-03-01T22:47:46.170Z,64.80
2023-03-01T22:50:18.159Z,64.70
2023-03-01T22:52:48.668Z,64.70
2023-03-01T22:55:16.890Z,64.90
2023-03-01T22:57:47.930Z,65.70
2023-03-01T23:00:18.392Z,65.00
2023-03-01T23:02:46.481Z,65.00
2023-03-01T23:05:15.057Z,63.90
2023-03-01T23:07:47.076Z,63.60
2023-03-01T23:10:16.617Z,65.60
2023-03-01T23:12:46.135Z,64.80
2023-03-01T23:15:14.637Z,64.80
2023-03-01T23:17:43.096Z,64.80
2023-03-01T23:20:14.674Z,64.60
2023-03-01T23:22:45.466Z,64.60
2023-03-01T23:25:13.509Z,65.20
2023-03-01T23:27:43.106Z,65.40
2023-03-01T23:30:14.278Z,65.70
2023-03-01T23:32:42.307Z,66.00
2023-03-01T23:35:11.152Z,66.00
2023-03-01T23:37:39.704Z,66.60
2023-03-01T23:40:08.744Z,66.10
2023-03-01T23:42:37.354Z,65.60
2023-03-01T23:45:07.775Z,66.20
2023-03-01T23:47:37.582Z,67.60
2023-03-01T23:50:06.529Z,68.30
2023-03-01T23:52:41.595Z,68.20
2023-03-01T23:55:12.561Z,69.40
2023-03-01T23:57:41.074Z,70.20
